Check out our new BloomSky Weather System.

Active alerts


No alerts


Thunder radar  blitzortung!


Rain radar more information rain snow radar


Visit our other weather sites:

Template documentation
and downloads

And another site



Weather Underground History page Text

Daily Summary for September 22, 2017 Units:  English    Metric   Both
« Previous Day
Next Day »
Daily Weekly Monthly Yearly Custom
  High: Low: Average:
Temperature: 91.0 °F 72.3 °F 81.1 °F
Dew Point: 78.8 °F 70.3 °F 73.8 °F
Humidity: 100 % 52 % 81 %
Wind Speed: 9.0 mph 0.0 mph 1.4 mph
Wind Gust: 16.0 mph - -
Wind:- - ESE
Pressure: 29.98 in 29.88 in -
Precipitation: 0.00 in    
Historical Graphs
 
 
Tabular Data for September 22, 2017
Time Temperature Dew Point Pressure Wind Wind Speed Wind Gust Humidity Rainfall Rate (Hourly)
00:02 75.6 °F 74.3 °F 29.93 in Calm   1.0 mph 96 % 0.00 in
00:07 75.6 °F 74.3 °F 29.93 in Calm   1.0 mph 96 % 0.00 in
00:12 75.6 °F 74.3 °F 29.93 in Calm   1.0 mph 96 % 0.00 in
00:17 75.6 °F 74.3 °F 29.93 in Calm   1.0 mph 96 % 0.00 in
00:22 75.4 °F 74.1 °F 29.93 in Calm   1.0 mph 96 % 0.00 in
00:27 75.4 °F 74.5 °F 29.93 in Calm   1.0 mph 97 % 0.00 in
00:32 75.0 °F 74.1 °F 29.93 in Calm     97 % 0.00 in
00:37 74.8 °F 73.9 °F 29.92 in Calm     97 % 0.00 in
00:42 74.8 °F 73.9 °F 29.92 in Calm     97 % 0.00 in
00:47 74.7 °F 73.8 °F 29.92 in Calm     97 % 0.00 in
00:52 74.7 °F 73.8 °F 29.92 in Calm     97 % 0.00 in
00:57 74.7 °F 73.8 °F 29.92 in Calm     97 % 0.00 in
01:02 74.7 °F 73.8 °F 29.92 in SE 1.0 mph   97 % 0.00 in
01:07 74.7 °F 74.1 °F 29.92 in Calm   1.0 mph 98 % 0.00 in
01:12 74.5 °F 73.9 °F 29.92 in Calm   1.0 mph 98 % 0.00 in
01:17 74.3 °F 73.8 °F 29.92 in Calm   1.0 mph 98 % 0.00 in
01:22 74.1 °F 73.6 °F 29.92 in Calm     98 % 0.00 in
01:27 74.1 °F 73.6 °F 29.92 in Calm     98 % 0.00 in
01:32 74.1 °F 73.6 °F 29.92 in Calm     98 % 0.00 in
01:37 74.1 °F 73.6 °F 29.92 in Calm     98 % 0.00 in
01:42 73.9 °F 73.4 °F 29.92 in Calm     98 % 0.00 in
01:47 73.9 °F 73.4 °F 29.92 in Calm     98 % 0.00 in
01:52 73.9 °F 73.4 °F 29.92 in Calm   1.0 mph 98 % 0.00 in
01:57 73.8 °F 73.2 °F 29.92 in Calm   1.0 mph 98 % 0.00 in
02:02 73.6 °F 73.0 °F 29.92 in Calm   1.0 mph 98 % 0.00 in
02:07 73.4 °F 72.9 °F 29.92 in Calm   1.0 mph 98 % 0.00 in
02:12 73.4 °F 72.9 °F 29.92 in Calm   1.0 mph 98 % 0.00 in
02:17 73.4 °F 73.0 °F 29.92 in Calm     99 % 0.00 in
02:22 73.6 °F 73.2 °F 29.92 in Calm     99 % 0.00 in
02:27 73.6 °F 73.2 °F 29.92 in Calm     99 % 0.00 in
02:32 73.2 °F 72.9 °F 29.92 in Calm     99 % 0.00 in
02:37 73.2 °F 72.9 °F 29.92 in Calm     99 % 0.00 in
02:42 73.2 °F 72.9 °F 29.92 in Calm     99 % 0.00 in
02:47 73.4 °F 73.0 °F 29.92 in Calm     99 % 0.00 in
02:52 73.6 °F 73.2 °F 29.92 in Calm     99 % 0.00 in
02:57 73.6 °F 73.2 °F 29.92 in Calm     99 % 0.00 in
03:02 73.2 °F 72.9 °F 29.92 in Calm     99 % 0.00 in
03:07 73.4 °F 73.0 °F 29.92 in Calm     99 % 0.00 in
03:12 73.2 °F 72.9 °F 29.92 in Calm     99 % 0.00 in
03:17 73.2 °F 72.9 °F 29.92 in Calm     99 % 0.00 in
03:22 73.2 °F 72.9 °F 29.92 in Calm     99 % 0.00 in
03:27 73.2 °F 72.9 °F 29.92 in Calm     99 % 0.00 in
03:32 73.0 °F 72.7 °F 29.92 in Calm     99 % 0.00 in
03:37 73.2 °F 72.9 °F 29.92 in Calm     99 % 0.00 in
03:42 73.4 °F 73.0 °F 29.92 in Calm     99 % 0.00 in
03:47 73.2 °F 72.9 °F 29.92 in Calm     99 % 0.00 in
03:52 73.2 °F 72.9 °F 29.92 in Calm   1.0 mph 99 % 0.00 in
03:57 73.4 °F 73.0 °F 29.92 in Calm   1.0 mph 99 % 0.00 in
04:02 73.6 °F 73.2 °F 29.92 in Calm   1.0 mph 99 % 0.00 in
04:07 73.4 °F 73.0 °F 29.92 in Calm   1.0 mph 99 % 0.00 in
04:12 73.4 °F 73.0 °F 29.92 in Calm   1.0 mph 99 % 0.00 in
04:17 73.6 °F 73.6 °F 29.92 in Calm   1.0 mph 100 % 0.00 in
04:22 73.6 °F 73.6 °F 29.92 in Calm   1.0 mph 100 % 0.00 in
04:27 73.6 °F 73.2 °F 29.92 in Calm   1.0 mph 99 % 0.00 in
04:32 73.6 °F 73.2 °F 29.91 in Calm     99 % 0.00 in
04:37 73.4 °F 73.4 °F 29.92 in Calm     100 % 0.00 in
04:42 73.2 °F 72.9 °F 29.92 in Calm     99 % 0.00 in
04:47 73.2 °F 72.9 °F 29.92 in Calm     99 % 0.00 in
04:52 73.2 °F 73.2 °F 29.92 in Calm     100 % 0.00 in
04:57 73.0 °F 73.0 °F 29.92 in Calm   1.0 mph 100 % 0.00 in
05:01 73.0 °F 73.0 °F 29.92 in Calm   1.0 mph 100 % 0.00 in
05:06 73.0 °F 73.0 °F 29.92 in Calm   1.0 mph 100 % 0.00 in
05:11 73.0 °F 73.0 °F 29.92 in Calm   1.0 mph 100 % 0.00 in
05:16 73.0 °F 73.0 °F 29.91 in Calm   1.0 mph 100 % 0.00 in
05:21 73.0 °F 73.0 °F 29.92 in Calm   1.0 mph 100 % 0.00 in
05:26 73.0 °F 73.0 °F 29.92 in Calm     100 % 0.00 in
05:31 73.0 °F 73.0 °F 29.91 in Calm   1.0 mph 100 % 0.00 in
05:36 73.0 °F 73.0 °F 29.92 in Calm   1.0 mph 100 % 0.00 in
05:41 73.0 °F 73.0 °F 29.92 in Calm   1.0 mph 100 % 0.00 in
05:46 73.0 °F 73.0 °F 29.92 in Calm   1.0 mph 100 % 0.00 in
05:51 73.0 °F 73.0 °F 29.92 in Calm   1.0 mph 100 % 0.00 in
05:57 73.0 °F 73.0 °F 29.92 in Calm     100 % 0.00 in
06:02 72.9 °F 72.9 °F 29.92 in Calm     100 % 0.00 in
06:03 72.9 °F 72.9 °F 29.92 in Calm     100 % 0.00 in
06:08 72.7 °F 72.7 °F 29.92 in Calm     100 % 0.00 in
06:13 72.7 °F 72.7 °F 29.93 in Calm     100 % 0.00 in
06:18 72.7 °F 72.7 °F 29.93 in Calm     100 % 0.00 in
06:23 72.9 °F 72.9 °F 29.93 in Calm     100 % 0.00 in
06:28 72.7 °F 72.7 °F 29.93 in Calm   1.0 mph 100 % 0.00 in
06:33 72.7 °F 72.7 °F 29.93 in Calm   1.0 mph 100 % 0.00 in
06:38 72.7 °F 72.7 °F 29.93 in Calm   1.0 mph 100 % 0.00 in
06:43 72.7 °F 72.7 °F 29.93 in Calm   1.0 mph 100 % 0.00 in
06:48 72.7 °F 72.7 °F 29.93 in Calm   1.0 mph 100 % 0.00 in
06:53 72.5 °F 72.5 °F 29.93 in Calm   1.0 mph 100 % 0.00 in
06:58 72.5 °F 72.5 °F 29.94 in Calm   1.0 mph 100 % 0.00 in
07:03 72.7 °F 72.7 °F 29.94 in Calm   1.0 mph 100 % 0.00 in
07:08 72.5 °F 72.5 °F 29.94 in Calm   1.0 mph 100 % 0.00 in
07:13 72.5 °F 72.5 °F 29.94 in Calm   1.0 mph 100 % 0.00 in
07:18 72.3 °F 72.3 °F 29.94 in Calm   1.0 mph 100 % 0.00 in
07:23 72.5 °F 72.5 °F 29.94 in Calm   1.0 mph 100 % 0.00 in
07:28 72.7 °F 72.7 °F 29.94 in Calm   1.0 mph 100 % 0.00 in
07:33 72.7 °F 72.7 °F 29.94 in Calm   1.0 mph 100 % 0.00 in
07:38 72.7 °F 72.7 °F 29.94 in Calm   1.0 mph 100 % 0.00 in
07:43 72.9 °F 72.9 °F 29.94 in NNE 1.0 mph 1.0 mph 100 % 0.00 in
07:48 73.2 °F 73.2 °F 29.94 in Calm   1.0 mph 100 % 0.00 in
07:53 73.6 °F 73.6 °F 29.94 in Calm   1.0 mph 100 % 0.00 in
07:58 74.1 °F 74.1 °F 29.94 in Calm   1.0 mph 100 % 0.00 in
08:03 74.5 °F 74.5 °F 29.94 in Calm   1.0 mph 100 % 0.00 in
08:08 74.7 °F 74.7 °F 29.95 in Calm   2.0 mph 100 % 0.00 in
08:13 75.0 °F 75.0 °F 29.95 in Calm   2.0 mph 100 % 0.00 in
08:18 75.4 °F 75.4 °F 29.95 in Calm   2.0 mph 100 % 0.00 in
08:23 75.7 °F 75.7 °F 29.95 in Calm   2.0 mph 100 % 0.00 in
08:28 76.3 °F 76.3 °F 29.95 in Calm   2.0 mph 100 % 0.00 in
08:33 76.6 °F 76.6 °F 29.95 in NW 1.0 mph 2.0 mph 100 % 0.00 in
08:38 77.2 °F 76.8 °F 29.96 in Calm   2.0 mph 99 % 0.00 in
08:43 77.5 °F 77.2 °F 29.96 in North 1.0 mph 2.0 mph 99 % 0.00 in
08:48 78.3 °F 77.9 °F 29.96 in Calm   2.0 mph 99 % 0.00 in
08:53 78.6 °F 77.7 °F 29.96 in ESE 1.0 mph 2.0 mph 97 % 0.00 in
08:58 79.2 °F 77.5 °F 29.96 in Calm   2.0 mph 95 % 0.00 in
09:03 79.3 °F 77.5 °F 29.96 in ESE 1.0 mph 3.0 mph 94 % 0.00 in
09:08 79.9 °F 77.7 °F 29.96 in Calm   3.0 mph 93 % 0.00 in
09:13 80.6 °F 78.1 °F 29.96 in East 1.0 mph 3.0 mph 92 % 0.00 in
09:18 81.3 °F 78.4 °F 29.96 in ENE 1.0 mph 3.0 mph 91 % 0.00 in
09:23 81.9 °F 78.3 °F 29.97 in Calm   3.0 mph 89 % 0.00 in
09:28 82.0 °F 77.7 °F 29.97 in NE 2.0 mph 4.0 mph 87 % 0.00 in
09:33 82.6 °F 78.6 °F 29.97 in East 1.0 mph 4.0 mph 88 % 0.00 in
09:38 82.9 °F 78.6 °F 29.97 in ESE 1.0 mph 4.0 mph 87 % 0.00 in
09:43 83.5 °F 78.8 °F 29.97 in SE 3.0 mph 4.0 mph 86 % 0.00 in
09:48 83.8 °F 78.4 °F 29.97 in SE 4.0 mph 4.0 mph 84 % 0.00 in
09:53 83.8 °F 78.8 °F 29.97 in SE 1.0 mph 6.0 mph 85 % 0.00 in
09:58 83.8 °F 78.8 °F 29.98 in East 3.0 mph 6.0 mph 85 % 0.00 in
10:03 83.8 °F 78.1 °F 29.98 in East 4.0 mph 6.0 mph 83 % 0.00 in
10:08 83.8 °F 78.1 °F 29.98 in ENE 1.0 mph 6.0 mph 83 % 0.00 in
10:13 83.8 °F 77.4 °F 29.97 in ESE 4.0 mph 8.0 mph 81 % 0.00 in
10:18 83.8 °F 77.7 °F 29.97 in ESE 2.0 mph 9.0 mph 82 % 0.00 in
10:23 84.4 °F 77.2 °F 29.98 in SE 2.0 mph 9.0 mph 79 % 0.00 in
10:28 84.0 °F 77.2 °F 29.98 in SE 2.0 mph 9.0 mph 80 % 0.00 in
10:33 83.8 °F 77.4 °F 29.98 in SE 1.0 mph 8.0 mph 81 % 0.00 in
10:38 84.6 °F 78.4 °F 29.98 in SE 3.0 mph 8.0 mph 82 % 0.00 in
10:43 85.5 °F 77.0 °F 29.98 in SE 4.0 mph 6.0 mph 76 % 0.00 in
10:48 85.6 °F 76.8 °F 29.98 in SSE 2.0 mph 6.0 mph 75 % 0.00 in
10:53 85.5 °F 76.6 °F 29.98 in SE 2.0 mph 7.0 mph 75 % 0.00 in
10:58 85.8 °F 77.7 °F 29.98 in East 3.0 mph 7.0 mph 77 % 0.00 in
11:03 85.8 °F 76.1 °F 29.97 in SSE 3.0 mph 7.0 mph 73 % 0.00 in
11:08 86.2 °F 76.1 °F 29.97 in NE 3.0 mph 6.0 mph 72 % 0.00 in
11:13 86.4 °F 75.9 °F 29.97 in ESE 2.0 mph 6.0 mph 71 % 0.00 in
11:18 86.4 °F 75.9 °F 29.97 in ENE 2.0 mph 6.0 mph 71 % 0.00 in
11:23 86.7 °F 76.1 °F 29.97 in SSW 3.0 mph 7.0 mph 71 % 0.00 in
11:28 86.7 °F 74.5 °F 29.97 in SE 6.0 mph 7.0 mph 67 % 0.00 in
11:33 87.1 °F 73.9 °F 29.97 in ENE 3.0 mph 7.0 mph 65 % 0.00 in
11:38 87.3 °F 74.5 °F 29.97 in SE 2.0 mph 7.0 mph 66 % 0.00 in
11:44 87.4 °F 75.2 °F 29.96 in South 2.0 mph 9.0 mph 67 % 0.00 in
11:49 87.8 °F 74.1 °F 29.96 in SE 2.0 mph 9.0 mph 64 % 0.00 in
11:54 88.0 °F 75.6 °F 29.96 in South 1.0 mph 9.0 mph 67 % 0.00 in
11:59 88.0 °F 75.2 °F 29.96 in SE 2.0 mph 8.0 mph 66 % 0.00 in
12:04 87.4 °F 74.7 °F 29.96 in SE 2.0 mph 8.0 mph 66 % 0.00 in
12:09 87.4 °F 75.2 °F 29.96 in ENE 2.0 mph 9.0 mph 67 % 0.00 in
12:14 87.4 °F 74.7 °F 29.96 in East 5.0 mph 9.0 mph 66 % 0.00 in
12:19 86.9 °F 74.7 °F 29.96 in SE 3.0 mph 9.0 mph 67 % 0.00 in
12:24 87.3 °F 75.4 °F 29.96 in NE 1.0 mph 9.0 mph 68 % 0.00 in
12:29 87.6 °F 75.4 °F 29.96 in SE 4.0 mph 9.0 mph 67 % 0.00 in
12:34 87.4 °F 75.2 °F 29.96 in East 1.0 mph 6.0 mph 67 % 0.00 in
12:39 87.4 °F 75.2 °F 29.96 in South 2.0 mph 6.0 mph 67 % 0.00 in
12:44 87.4 °F 74.7 °F 29.95 in SE 3.0 mph 6.0 mph 66 % 0.00 in
12:49 87.6 °F 74.8 °F 29.95 in East 3.0 mph 7.0 mph 66 % 0.00 in
12:54 87.4 °F 74.7 °F 29.95 in ESE 1.0 mph 7.0 mph 66 % 0.00 in
12:59 87.6 °F 75.4 °F 29.95 in SE 2.0 mph 7.0 mph 67 % 0.00 in
13:04 87.8 °F 74.5 °F 29.94 in NNE 2.0 mph 6.0 mph 65 % 0.00 in
13:09 88.3 °F 74.1 °F 29.94 in ESE 4.0 mph 8.0 mph 63 % 0.00 in
13:14 89.1 °F 73.9 °F 29.94 in East 5.0 mph 9.0 mph 61 % 0.00 in
13:19 89.1 °F 73.4 °F 29.94 in SSW 1.0 mph 16.0 mph 60 % 0.00 in
13:24 89.2 °F 73.9 °F 29.94 in ESE 5.0 mph 16.0 mph 61 % 0.00 in
13:29 90.0 °F 74.7 °F 29.94 in ESE 6.0 mph 16.0 mph 61 % 0.00 in
13:34 90.0 °F 73.8 °F 29.94 in SE 3.0 mph 11.0 mph 59 % 0.00 in
13:39 90.0 °F 72.7 °F 29.94 in SE 9.0 mph 9.0 mph 57 % 0.00 in
13:44 90.1 °F 72.9 °F 29.94 in SE 7.0 mph 12.0 mph 57 % 0.00 in
13:49 90.3 °F 73.6 °F 29.93 in SE 7.0 mph 12.0 mph 58 % 0.00 in
13:54 90.3 °F 73.6 °F 29.94 in ESE 4.0 mph 12.0 mph 58 % 0.00 in
13:59 90.5 °F 71.6 °F 29.94 in SSE 6.0 mph 10.0 mph 54 % 0.00 in
14:04 90.5 °F 72.7 °F 29.93 in ESE 4.0 mph 12.0 mph 56 % 0.00 in
14:09 90.7 °F 72.9 °F 29.93 in ESE 3.0 mph 12.0 mph 56 % 0.00 in
14:14 90.5 °F 72.7 °F 29.93 in SE 4.0 mph 12.0 mph 56 % 0.00 in
14:19 90.7 °F 71.8 °F 29.93 in ENE 5.0 mph 11.0 mph 54 % 0.00 in
14:24 90.3 °F 71.4 °F 29.92 in SSE 4.0 mph 11.0 mph 54 % 0.00 in
14:29 89.8 °F 71.4 °F 29.92 in SE 4.0 mph 11.0 mph 55 % 0.00 in
14:34 89.8 °F 72.5 °F 29.92 in East 1.0 mph 9.0 mph 57 % 0.00 in
14:39 90.5 °F 72.7 °F 29.92 in ESE 2.0 mph 9.0 mph 56 % 0.00 in
14:45 90.9 °F 72.0 °F 29.92 in ESE 2.0 mph 7.0 mph 54 % 0.00 in
14:50 90.9 °F 73.6 °F 29.92 in SSE 4.0 mph 11.0 mph 57 % 0.00 in
14:55 90.7 °F 72.9 °F 29.91 in ESE 4.0 mph 11.0 mph 56 % 0.00 in
15:00 90.9 °F 72.0 °F 29.92 in ESE 7.0 mph 11.0 mph 54 % 0.00 in
15:05 90.7 °F 72.9 °F 29.91 in SSE 2.0 mph 11.0 mph 56 % 0.00 in
15:10 90.5 °F 73.2 °F 29.91 in SE 5.0 mph 11.0 mph 57 % 0.00 in
15:15 90.7 °F 72.3 °F 29.91 in ESE 3.0 mph 12.0 mph 55 % 0.00 in
15:20 90.9 °F 71.4 °F 29.91 in SSE 2.0 mph 12.0 mph 53 % 0.00 in
15:25 91.0 °F 71.6 °F 29.91 in SE 4.0 mph 12.0 mph 53 % 0.00 in
15:30 90.9 °F 72.5 °F 29.91 in ESE 4.0 mph 12.0 mph 55 % 0.00 in
15:35 90.7 °F 71.8 °F 29.91 in South 1.0 mph 12.0 mph 54 % 0.00 in
15:40 90.9 °F 72.0 °F 29.91 in SSE 3.0 mph 12.0 mph 54 % 0.00 in
15:45 90.7 °F 71.2 °F 29.90 in SE 3.0 mph 12.0 mph 53 % 0.00 in
15:50 90.7 °F 71.2 °F 29.90 in South 5.0 mph 12.0 mph 53 % 0.00 in
15:55 90.3 °F 70.9 °F 29.90 in East 4.0 mph 12.0 mph 53 % 0.00 in
16:00 90.7 °F 71.8 °F 29.90 in SE 5.0 mph 10.0 mph 54 % 0.00 in
16:05 90.7 °F 71.8 °F 29.89 in SE 1.0 mph 11.0 mph 54 % 0.00 in
16:10 90.9 °F 71.4 °F 29.89 in ESE 6.0 mph 11.0 mph 53 % 0.00 in
16:15 90.7 °F 70.7 °F 29.89 in ESE 2.0 mph 11.0 mph 52 % 0.00 in
16:20 90.7 °F 71.2 °F 29.89 in ENE 4.0 mph 10.0 mph 53 % 0.00 in
16:25 90.7 °F 70.7 °F 29.89 in SSE 5.0 mph 10.0 mph 52 % 0.00 in
16:27 90.5 °F 71.1 °F 29.89 in ESE 5.0 mph 10.0 mph 53 % 0.00 in
16:32 90.3 °F 70.3 °F 29.88 in ESE 4.0 mph 8.0 mph 52 % 0.00 in
16:37 90.7 °F 71.8 °F 29.89 in SE 5.0 mph 7.0 mph 54 % 0.00 in
16:42 90.3 °F 72.0 °F 29.89 in East 5.0 mph 10.0 mph 55 % 0.00 in
16:47 90.3 °F 72.5 °F 29.89 in SE 3.0 mph 10.0 mph 56 % 0.00 in
16:52 90.3 °F 71.4 °F 29.88 in ESE 2.0 mph 10.0 mph 54 % 0.00 in
16:57 90.3 °F 72.5 °F 29.88 in ESE 6.0 mph 10.0 mph 56 % 0.00 in
17:02 90.1 °F 72.9 °F 29.88 in SE 4.0 mph 10.0 mph 57 % 0.00 in
17:07 90.3 °F 72.5 °F 29.88 in East 5.0 mph 10.0 mph 56 % 0.00 in
17:12 90.0 °F 72.1 °F 29.89 in East 4.0 mph 8.0 mph 56 % 0.00 in
17:17 89.6 °F 72.3 °F 29.88 in SE 3.0 mph 9.0 mph 57 % 0.00 in
17:22 89.2 °F 72.0 °F 29.89 in SE 5.0 mph 9.0 mph 57 % 0.00 in
17:27 89.2 °F 72.0 °F 29.89 in SE 5.0 mph 9.0 mph 57 % 0.00 in
17:32 89.2 °F 72.5 °F 29.88 in SSE 2.0 mph 9.0 mph 58 % 0.00 in
17:37 89.4 °F 72.1 °F 29.88 in SE 4.0 mph 9.0 mph 57 % 0.00 in
17:42 89.4 °F 72.1 °F 29.88 in South 3.0 mph 7.0 mph 57 % 0.00 in
17:47 89.4 °F 71.6 °F 29.88 in SE 4.0 mph 8.0 mph 56 % 0.00 in
17:52 89.4 °F 72.7 °F 29.88 in SE 2.0 mph 8.0 mph 58 % 0.00 in
17:57 89.2 °F 72.5 °F 29.88 in NE 3.0 mph 8.0 mph 58 % 0.00 in
18:02 89.1 °F 72.3 °F 29.88 in South 4.0 mph 9.0 mph 58 % 0.00 in
18:07 88.9 °F 72.1 °F 29.88 in East 4.0 mph 9.0 mph 58 % 0.00 in
18:12 88.5 °F 72.3 °F 29.88 in SE 1.0 mph 9.0 mph 59 % 0.00 in
18:17 88.3 °F 72.7 °F 29.88 in East 2.0 mph 8.0 mph 60 % 0.00 in
18:22 88.2 °F 72.5 °F 29.88 in SSE 7.0 mph 7.0 mph 60 % 0.00 in
18:27 88.0 °F 72.3 °F 29.88 in ESE 4.0 mph 7.0 mph 60 % 0.00 in
18:32 87.6 °F 71.6 °F 29.88 in ESE 3.0 mph 7.0 mph 59 % 0.00 in
18:37 87.6 °F 72.0 °F 29.88 in SE 2.0 mph 7.0 mph 60 % 0.00 in
18:42 87.6 °F 72.5 °F 29.88 in ENE 3.0 mph 7.0 mph 61 % 0.00 in
18:47 87.4 °F 71.8 °F 29.88 in SE 6.0 mph 7.0 mph 60 % 0.00 in
18:52 87.3 °F 71.6 °F 29.88 in East 3.0 mph 7.0 mph 60 % 0.00 in
18:57 87.3 °F 72.7 °F 29.88 in Calm   7.0 mph 62 % 0.00 in
19:02 86.7 °F 72.1 °F 29.88 in South 1.0 mph 7.0 mph 62 % 0.00 in
19:07 86.2 °F 72.1 °F 29.88 in ESE 2.0 mph 6.0 mph 63 % 0.00 in
19:12 85.8 °F 72.1 °F 29.88 in SE 5.0 mph 6.0 mph 64 % 0.00 in
19:17 85.6 °F 72.5 °F 29.88 in ESE 4.0 mph 6.0 mph 65 % 0.00 in
19:19 85.5 °F 72.3 °F 29.88 in ESE 1.0 mph 6.0 mph 65 % 0.00 in
19:24 85.3 °F 72.1 °F 29.88 in SE 1.0 mph 6.0 mph 65 % 0.00 in
19:29 84.9 °F 72.3 °F 29.88 in SE 1.0 mph 6.0 mph 66 % 0.00 in
19:34 84.7 °F 72.5 °F 29.88 in Calm   6.0 mph 67 % 0.00 in
19:39 84.4 °F 72.7 °F 29.88 in Calm   4.0 mph 68 % 0.00 in
19:44 84.0 °F 72.7 °F 29.88 in East 2.0 mph 4.0 mph 69 % 0.00 in
19:49 84.0 °F 72.7 °F 29.88 in East 2.0 mph 4.0 mph 69 % 0.00 in
19:54 83.8 °F 73.0 °F 29.88 in Calm   4.0 mph 70 % 0.00 in
19:59 83.7 °F 72.9 °F 29.88 in ESE 1.0 mph 4.0 mph 70 % 0.00 in
20:04 83.1 °F 72.7 °F 29.88 in Calm   4.0 mph 71 % 0.00 in
20:09 82.9 °F 73.0 °F 29.88 in Calm   2.0 mph 72 % 0.00 in
20:14 82.8 °F 73.2 °F 29.88 in ESE 1.0 mph 3.0 mph 73 % 0.00 in
20:19 82.4 °F 73.2 °F 29.88 in Calm   3.0 mph 74 % 0.00 in
20:29 81.9 °F 73.9 °F 29.89 in East 1.0 mph 2.0 mph 77 % 0.00 in
20:34 81.7 °F 74.1 °F 29.89 in Calm   2.0 mph 78 % 0.00 in
20:39 81.7 °F 74.1 °F 29.89 in East 1.0 mph 2.0 mph 78 % 0.00 in
20:44 81.5 °F 74.3 °F 29.89 in ENE 1.0 mph 2.0 mph 79 % 0.00 in
20:49 81.3 °F 74.5 °F 29.89 in ESE 2.0 mph 3.0 mph 80 % 0.00 in
20:55 81.1 °F 74.3 °F 29.89 in Calm   3.0 mph 80 % 0.00 in
21:00 81.1 °F 74.3 °F 29.90 in Calm   3.0 mph 80 % 0.00 in
21:05 81.0 °F 74.7 °F 29.90 in ESE 1.0 mph 2.0 mph 81 % 0.00 in
21:10 81.0 °F 74.7 °F 29.90 in Calm   2.0 mph 81 % 0.00 in
21:15 80.8 °F 74.8 °F 29.90 in Calm   2.0 mph 82 % 0.00 in
21:20 80.4 °F 74.5 °F 29.90 in Calm   2.0 mph 82 % 0.00 in
21:25 80.4 °F 74.5 °F 29.90 in Calm   1.0 mph 82 % 0.00 in
21:30 80.2 °F 74.7 °F 29.90 in Calm   1.0 mph 83 % 0.00 in
21:35 80.1 °F 74.8 °F 29.90 in Calm   1.0 mph 84 % 0.00 in
21:40 80.1 °F 74.8 °F 29.90 in Calm   1.0 mph 84 % 0.00 in
21:45 79.9 °F 74.7 °F 29.90 in Calm   1.0 mph 84 % 0.00 in
21:50 79.7 °F 74.5 °F 29.90 in Calm   1.0 mph 84 % 0.00 in
21:55 79.5 °F 74.7 °F 29.90 in Calm   1.0 mph 85 % 0.00 in
21:56 79.3 °F 74.5 °F 29.90 in Calm   1.0 mph 85 % 0.00 in
22:01 79.3 °F 74.8 °F 29.90 in Calm   1.0 mph 86 % 0.00 in
22:06 79.2 °F 74.7 °F 29.90 in Calm   1.0 mph 86 % 0.00 in
22:11 79.2 °F 74.7 °F 29.90 in Calm   1.0 mph 86 % 0.00 in
22:16 79.0 °F 74.5 °F 29.90 in Calm   1.0 mph 86 % 0.00 in
22:21 79.0 °F 74.8 °F 29.90 in Calm   1.0 mph 87 % 0.00 in
22:26 79.0 °F 74.8 °F 29.90 in Calm   1.0 mph 87 % 0.00 in
22:31 78.6 °F 74.5 °F 29.90 in Calm   1.0 mph 87 % 0.00 in
22:37 78.6 °F 74.8 °F 29.90 in Calm   1.0 mph 88 % 0.00 in
22:42 78.6 °F 74.8 °F 29.90 in Calm   1.0 mph 88 % 0.00 in
22:47 78.4 °F 74.7 °F 29.90 in Calm   1.0 mph 88 % 0.00 in
22:52 78.3 °F 74.5 °F 29.90 in Calm   1.0 mph 88 % 0.00 in
22:57 78.3 °F 74.7 °F 29.90 in Calm   1.0 mph 89 % 0.00 in
23:02 78.1 °F 74.5 °F 29.90 in Calm   1.0 mph 89 % 0.00 in
23:07 77.9 °F 74.5 °F 29.90 in Calm   1.0 mph 89 % 0.00 in
23:12 77.9 °F 74.5 °F 29.90 in Calm   1.0 mph 89 % 0.00 in
23:17 77.7 °F 74.3 °F 29.90 in Calm   1.0 mph 89 % 0.00 in
23:22 77.5 °F 74.3 °F 29.90 in Calm   1.0 mph 90 % 0.00 in
23:27 77.5 °F 74.3 °F 29.90 in Calm   1.0 mph 90 % 0.00 in
23:32 77.5 °F 74.3 °F 29.90 in Calm   1.0 mph 90 % 0.00 in
23:37 77.5 °F 74.3 °F 29.90 in Calm   1.0 mph 90 % 0.00 in
23:42 77.4 °F 74.1 °F 29.90 in Calm   1.0 mph 90 % 0.00 in
23:47 77.0 °F 73.8 °F 29.90 in Calm   1.0 mph 90 % 0.00 in
23:52 76.6 °F 73.8 °F 29.90 in Calm   1.0 mph 91 % 0.00 in
23:57 76.6 °F 74.1 °F 29.90 in Calm     92 % 0.00 in
Spring, Texas: Villages of Bridgestone
Compliments of Weather Underground - 2.75 mb

Script developed by  Jim McMurry - jmcmurry@mwt.net Adapted for the template by  Wim van der Kuil - Leuven-Template.eu

You find our weather info also at:

UK Metoffice

WeatherCloud

Weather Underground

Mid-South Weather Network

AWEKAS

Citizen Weather Observer Program (CWOP)

HAMweather, WeatherForYou, PWS Weather

Equipment we use:

Weather-station
Davis Vantage Vue

Weather-program
Meteohub

Weather-server
Debian 7.9 x86 (Guest)

Provider
DreamHost

Davis Vantage Vue

Meteohub

Debian 7.9 x86 (Guest)

DreamHost